Pagina principale
METAR-TAF:

METAR-TAF

Aeroporti :

Bastia, Francia

Aeroporto di Bastia Poretta

latitudine: 42-33N, longitudine: 009-29E, altezza: 8 m

Osservazione

Il bollettino è stato emesso 24 minuti fa, alle 12:00 UTC
Vento 5 kt da sud-est, variando fra est e sud
Temperature 17°C
Umidità 59%
Pressione 1013 hPa
Visibilità 10 km o più
Poco nuvoloso ad un'altezza di 3000 ft
Nuvoloso ad un'altezza di 23000 ft

METAR: LFKB 191200Z 14005KT 100V170 9999 FEW030 BKN230 17/09 Q1013 NOSIG

Ora: 13:24 (12:24 UTC)

Previsione

Il bollettino è stato emesso 4 ore e 24 minuti fa, alle 08:00 UTC
Previsione valida dal 19 alle 09 UTC al 20 alle 09 UTC
Vento 4 kt da sud-ovest
Visibilità 10 km o più
Poco nuvoloso ad un'altezza di 3000 ft
Nuvoloso ad un'altezza di 23000 ft

TAF: LFKB 190800Z 1909/2009 23004KT 9999 FEW030 BKN230 TX17/1912Z TN07/2005Z

Osservazioni e previsioni meteorologiche di più di 4000 aeroporti (messaggi METAR e TAF).

Le stazioni disponibili sono rappresentate dai dischi gialli e rossi sulla carta.

Puntare il mouse per vedere il nome della stazione.

Clicca sopra per visualizzare le osservazioni e previsioni meteorologiche.

Per cambiare la mappa : fare clic sui pulsanti verdi con una croce nera per ingrandire, il pulsante verde con un trattino per diminuire, o sulla freccia verde per le mappe adiacenti.


METAR-TAF: